Home > Products > Valid Products > MTR

000
SAUS46 KPQR 021355
MTRREO
METAR KREO 021352Z AUTO 15005KT 09/M02 A3000 RMK AO1 SLP132
T00891022





000
SAUS46 KPQR 021253
MTRREO
METAR KREO 021252Z AUTO 14006KT 08/M03 A3000 RMK AO1 SLP131
T00781028





000
SAUS46 KPQR 021153
MTRREO
METAR KREO 021152Z AUTO 16006KT 07/M03 A3000 RMK AO1 SLP133
T00721033 10150 20072 56002





000
SAUS46 KPQR 021053
MTRREO
METAR KREO 021052Z AUTO 15004KT 09/M03 A3000 RMK AO1 SLP130
T00891028





000
SAUS46 KPQR 020953
MTRREO
METAR KREO 020952Z AUTO 00000KT 09/M03 A3000 RMK AO1 SLP132
T00941033





000
SAUS46 KPQR 020853
MTRREO
METAR KREO 020852Z AUTO 15005KT 09/M04 A3001 RMK AO1 SLP135
T00941039 58002





000
SAUS46 KPQR 020753
MTRREO
METAR KREO 020752Z AUTO 00000KT 12/M02 A3002 RMK AO1 SLP138
T01221017 402780078





000
SAUS46 KPQR 020653
MTRREO
METAR KREO 020652Z AUTO 01004KT 15/M01 A3002 RMK AO1 SLP136
T01501006





000
SAUS46 KPQR 020553
MTRREO
METAR KREO 020552Z AUTO 08006KT 14/M02 A3001 RMK AO1 SLP137
T01441017 10278 20144 50002





000
SAUS46 KPQR 020455
MTRREO
METAR KREO 020452Z AUTO 14003KT 15/M01 A3002 RMK AO1 SLP143
T01501011





000
SAUS46 KPQR 020353
MTRREO
METAR KREO 020352Z AUTO 07007KT 19/00 A3002 RMK AO1 SLP137 T01940000





000
SAUS46 KPQR 020353
MTRREO
METAR KREO 020352Z AUTO 07007KT 19/00 A3002 RMK AO1 SLP137 T01940000





000
SAUS46 KPQR 020253
MTRREO
METAR KREO 020252Z AUTO 05007KT 22/01 A3001 RMK AO1 SLP133 T02170006
55003





000
SAUS46 KPQR 020153
MTRREO
METAR KREO 020152Z AUTO 03004KT 26/00 A3000 RMK AO1 SLP127 T02610000





000
SAUS46 KPQR 020053
MTRREO
METAR KREO 020052Z AUTO 22004KT 27/00 A3000 RMK AO1 SLP131 T02670000





000
SAUS46 KPQR 012353
MTRREO
METAR KREO 012352Z AUTO 20006KT 27/00 A3002 RMK AO1 SLP136 T02670000
10272 20189 56017





000
SAUS46 KPQR 012253
MTRREO
METAR KREO 012252Z AUTO 27/01 A3003 RMK AO1 SLP140 T02720011





000
SAUS46 KPQR 012153
MTRREO
METAR KREO 012152Z AUTO 07007KT 26/01 A3004 RMK AO1 SLP148 T02560011





000
SAUS46 KPQR 012053
MTRREO
METAR KREO 012052Z AUTO VRB04KT 24/02 A3007 RMK AO1 SLP160 T02440017
58015





000
SAUS46 KPQR 011953
MTRREO
METAR KREO 011952Z AUTO VRB03KT 23/02 A3009 RMK AO1 SLP165 T02280017





000
SAUS46 KPQR 011853
MTRREO
METAR KREO 011852Z AUTO 13003KT 21/02 A3011 RMK AO1 SLP173 T02060022





000
SAUS46 KPQR 011753
MTRREO
METAR KREO 011752Z AUTO 11006KT 19/03 A3012 RMK AO1 SLP177 T01940033
10194 20078 58002





000
SAUS46 KPQR 011653
MTRREO
METAR KREO 011652Z AUTO 03008KT 18/03 A3013 RMK AO1 SLP179 T01780033





000
SAUS46 KPQR 011553
MTRREO
METAR KREO 011552Z AUTO 36008KT 16/02 A3013 RMK AO1 SLP178 T01560022





000
SAUS46 KPQR 011453
MTRREO
METAR KREO 011452Z AUTO 04008KT 14/02 A3013 RMK AO1 SLP177 T01390017
53015





000
SAUS46 KPQR 011353
MTRREO
METAR KREO 011352Z AUTO 06007KT 12/01 A3011 RMK AO1 SLP169 T01170006





000
SAUS46 KPQR 011253
MTRREO
METAR KREO 011252Z AUTO 05005KT 09/M01 A3009 RMK AO1 SLP162
T00941011





000
SAUS46 KPQR 011153
MTRREO
METAR KREO 011152Z AUTO 06007KT 10/M02 A3008 RMK AO1 SLP157
T01001022 10150 20078 51006





000
SAUS46 KPQR 011053
MTRREO
METAR KREO 011052Z AUTO 04005KT 09/M04 A3007 RMK AO1 SLP158
T00891039





000
SAUS46 KPQR 010953
MTRREO
METAR KREO 010952Z AUTO 17004KT 09/M03 A3006 RMK AO1 SLP157
T00891033





000
SAUS46 KPQR 010853
MTRREO
METAR KREO 010852Z AUTO 00000KT 09/M04 A3006 RMK AO1 SLP155
T00891039 51010





000
SAUS46 KPQR 010753
MTRREO
METAR KREO 010752Z AUTO 15006KT 10/M03 A3005 RMK AO1 SLP156
T01001028 402610083





000
SAUS46 KPQR 010653
MTRREO
METAR KREO 010652Z AUTO 21004KT 12/M02 A3004 RMK AO1 SLP149
T01221022





000
SAUS46 KPQR 010553
MTRREO
METAR KREO 010552Z AUTO 00000KT 13/M02 A3002 RMK AO1 SLP144
T01331022 10261 20133 51011





000
SAUS46 KPQR 010453
MTRREO
METAR KREO 010452Z AUTO 08007KT 16/M01 A3002 RMK AO1 SLP141
T01561006





000
SAUS46 KPQR 010353
MTRREO
METAR KREO 010352Z AUTO 05007KT 18/01 A3001 RMK AO1 SLP135 T01830006





000
SAUS46 KPQR 010253
MTRREO
METAR KREO 010252Z AUTO 02009KT 21/01 A2999 RMK AO1 SLP127 T02060006
53005





000
SAUS46 KPQR 010153
MTRREO
METAR KREO 010152Z AUTO 02008KT 23/03 A2997 RMK AO1 SLP123 T02330028





000
SAUS46 KPQR 010053
MTRREO
METAR KREO 010052Z AUTO 01011KT 26/02 A2996 RMK AO1 SLP119 T02560022





000
SAUS46 KPQR 312353
MTRREO
METAR KREO 312352Z AUTO 25012G20KT 26/M03 A2997 RMK AO1 SLP120
T02611033 10261 20183 56017





000
SAUS46 KPQR 312253
MTRREO
METAR KREO 312252Z AUTO 25009G18KT 26/M03 A2998 RMK AO1 SLP125
T02561028





000
SAUS46 KPQR 312153
MTRREO
METAR KREO 312152Z AUTO VRB05G21KT 24/M01 A3001 RMK AO1 SLP135
T02441006





000
SAUS46 KPQR 312053
MTRREO
METAR KREO 312052Z AUTO VRB05KT 23/03 A3003 RMK AO1 SLP144 T02280028
58014





000
SAUS46 KPQR 311953
MTRREO
METAR KREO 311952Z AUTO VRB04KT 21/06 A3005 RMK AO1 SLP150 T02110056





000
SAUS46 KPQR 311853
MTRREO
METAR KREO 311852Z AUTO 04008KT 19/06 A3007 RMK AO1 SLP157 T01940061





000
SAUS46 KPQR 311753
MTRREO
METAR KREO 311752Z AUTO 06006KT 18/07 A3007 RMK AO1 SLP161 T01830067
10189 20083 50001





000
SAUS46 KPQR 311658 COR
MTRREO
METAR KREO 311652Z AUTO VRB06KT 17/07 A3008 RMK AO1 SLP164 T01670072





000
SAUS46 KPQR 311657 COR
MTRREO
METAR KREO 311652Z AUTO VRB06KT 17/07 A3008 RMK AO1 SLP164 T01670072





000
SAUS46 KPQR 311655 COR
MTRREO
METAR KREO 311652Z AUTO VRB06KT 17/07 A3008 RMK AO1 SLP164 T01670072





000
SAUS46 KPQR 311654 COR
MTRREO
METAR KREO 311652Z AUTO VRB06KT 17/07 A3008 RMK AO1 SLP164 T01670072





000
SAUS46 KPQR 311653
MTRREO
METAR KREO 311652Z AUTO VRB06KT 17/07 A3008 RMK AO1 SLP164 T01670072





000
SAUS46 KPQR 311553
MTRREO
METAR KREO 311552Z AUTO 04006KT 16/07 A3008 RMK AO1 SLP165 T01610072





000
SAUS46 KPQR 311453
MTRREO
METAR KREO 311452Z AUTO 03005KT 14/07 A3007 RMK AO1 SLP163 T01440072
51009





000
SAUS46 KPQR 311353
MTRREO
METAR KREO 311352Z AUTO 13005KT 11/06 A3007 RMK AO1 SLP158 T01110061





000
SAUS46 KPQR 311253
MTRREO
METAR KREO 311252Z AUTO 13005KT 09/06 A3005 RMK AO1 SLP153 T00890056





000
SAUS46 KPQR 311153
MTRREO
METAR KREO 311152Z AUTO 14007KT 10/06 A3004 RMK AO1 SLP144 T01000061
10139 20089 51004





000
SAUS46 KPQR 311053
MTRREO
METAR KREO 311052Z AUTO 15005KT 09/06 A3004 RMK AO1 SLP142 T00940061





000
SAUS46 KPQR 310953
MTRREO
METAR KREO 310952Z AUTO 14007KT 09/06 A3004 RMK AO1 SLP143 T00940061





000
SAUS46 KPQR 310853
MTRREO
METAR KREO 310852Z AUTO 13007KT 10/06 A3002 RMK AO1 SLP136 T01000061
51004





000
SAUS46 KPQR 310753
MTRREO
METAR KREO 310752Z AUTO 00000KT 12/08 A3002 RMK AO1 SLP135 T01220078
402780122





000
SAUS46 KPQR 310653
MTRREO
METAR KREO 310652Z AUTO 34005KT 14/08 A3002 RMK AO1 SLP134 T01390083





000
SAUS46 KPQR 310557 COR
MTRREO
METAR KREO 31lI
&&L3KT 14/08 A3001 RMK AO1 SLP131 T01390083
10256 20133 51019





000
SAUS46 KPQR 310555 COR
MTRREO
METAR KREO 310552Z AUTO 32003KT 14/08 A3001 RMK AO1 SLP131 T01390083
10256 20133 51019





000
SAUS46 KPQR 310554 COR
MTRREO
METAR KREO 310552Z AUTO 32003KT 14/08 A3001 RMK AO1 SLP131 T01390083
10256 20133 51019





000
SAUS46 KPQR 310554
MTRREO
METAR KREO 310552Z AUTO 32003KT 14/08 A3001 RMK AO1 SLP131 T01390083
10256 20133 51019





000
SAUS46 KPQR 310453
MTRREO
METAR KREO 310452Z AUTO 05006KT 14/09 A3000 RMK AO1 SLP130 T01390094





000
SAUS46 KPQR 310353
MTRREO
METAR KREO 310352Z AUTO 05008KT 15/09 A2997 RMK AO1 SLP121 T01500094





000
SAUS46 KPQR 310253
MTRREO
METAR KREO 310252Z AUTO 35014KT 16/09 A2995 RMK AO1 PK WND
33032/0158 SLP116 T01560089 53019





000
SAUS46 KPQR 310153
MTRREO
METAR KREO 310152Z AUTO 35010KT 22/04 A2991 RMK AO1 WSHFT 0121
SLP094 T02170044





000
SAUS46 KPQR 310140
MTRREO
SPECI KREO 310138Z AUTO 34013KT 22/05 A2989 RMK AO1 WSHFT 0121
T02170050





000
SAUS46 KPQR 310053
MTRREO
METAR KREO 310052Z AUTO 01006KT 24/02 A2987 RMK AO1 SLP078 T02440022





000
SAUS46 KPQR 302355
MTRREO
METAR KREO 302352Z AUTO 23009KT 26/00 A2988 RMK AO1 SLP080 T02560000
10278 20228 56010





000
SAUS46 KPQR 302253
MTRREO
METAR KREO 302252Z AUTO 24014G19KT 27/01 A2989 RMK AO1 SLP082
T02670011





000
SAUS46 KPQR 302153
MTRREO
METAR KREO 302152Z AUTO 22013G26KT 26/M01 A2990 RMK AO1 PK WND
20026/2150 SLP085 T02611006





000
SAUS46 KPQR 302053
MTRREO
METAR KREO 302052Z AUTO 25009G16KT 27/M01 A2992 RMK AO1 SLP087
T02721006 56020





000
SAUS46 KPQR 301953
MTRREO
METAR KREO 301952Z AUTO 33009KT 26/01 A2994 RMK AO1 SLP093 T02610006





000
SAUS46 KPQR 301853
MTRREO
METAR KREO 301852Z AUTO VRB03KT 24/01 A2996 RMK AO1 SLP102 T02390011





000
SAUS46 KPQR 301753
MTRREO
METAR KREO 301752Z AUTO VRB03KT 23/02 A2998 RMK AO1 SLP119 T02330022
10239 20167 58001





000
SAUS46 KPQR 301653
MTRREO
METAR KREO 301652Z AUTO VRB04KT 22/03 A3000 RMK AO1 SLP117 T02170028





000
SAUS46 KPQR 301553
MTRREO
METAR KREO 301552Z AUTO VRB03KT 19/02 A2999 RMK AO1 SLP115 T01940017





000
SAUS46 KPQR 301453
MTRREO
METAR KREO 301452Z AUTO 07005KT 18/05 A2999 RMK AO1 SLP115 T01780050
53008





    US Dept of Commerce
    National Oceanic and Atmospheric Administration
    National Weather Service
    1325 East West Highway
    Silver Spring, MD 20910
    Page Author: NWS Internet Services Team
Disclaimer
Information Quality
Credits
Glossary
Privacy Policy
Freedom of Information Act (FOIA)
About Us
Career Opportunities